createdAt,value
2022-07-28T00:00:56.576Z,21.88
2022-07-28T00:03:23.599Z,21.90
2022-07-28T00:05:50.482Z,21.86
2022-07-28T00:08:17.400Z,21.93
2022-07-28T00:10:44.309Z,21.84
2022-07-28T00:13:11.250Z,21.81
2022-07-28T00:15:38.104Z,21.83
2022-07-28T00:18:05.002Z,21.76
2022-07-28T00:20:31.868Z,21.66
2022-07-28T00:22:58.707Z,21.68
2022-07-28T00:25:25.618Z,21.69
2022-07-28T00:27:53.341Z,21.49
2022-07-28T00:30:20.300Z,21.65
2022-07-28T00:32:47.142Z,21.69
2022-07-28T00:35:15.038Z,21.56
2022-07-28T00:37:42.546Z,21.55
2022-07-28T00:40:10.502Z,21.53
2022-07-28T00:42:37.327Z,21.46
2022-07-28T00:45:05.344Z,21.51
2022-07-28T00:47:33.719Z,21.47
2022-07-28T00:50:03.810Z,21.46
2022-07-28T00:52:30.826Z,21.41
2022-07-28T00:54:58.681Z,21.32
2022-07-28T00:57:25.581Z,21.24
2022-07-28T00:59:52.460Z,21.26
2022-07-28T01:02:19.815Z,21.27
2022-07-28T01:04:47.093Z,21.28
2022-07-28T01:07:40.291Z,21.32
2022-07-28T01:10:18.085Z,21.27
2022-07-28T01:13:11.147Z,21.18
2022-07-28T01:15:51.015Z,21.09
2022-07-28T01:18:26.421Z,21.13
2022-07-28T01:21:02.894Z,21.00
2022-07-28T01:23:32.582Z,21.00
2022-07-28T01:26:20.962Z,20.95
2022-07-28T01:29:44.511Z,20.94
2022-07-28T01:32:19.355Z,20.84
2022-07-28T01:34:56.368Z,20.76
2022-07-28T01:37:30.700Z,20.79
2022-07-28T01:40:01.640Z,20.76
2022-07-28T01:42:40.799Z,20.71
2022-07-28T01:45:09.513Z,20.68
2022-07-28T01:47:37.224Z,20.69
2022-07-28T01:50:08.630Z,20.57
2022-07-28T01:52:37.446Z,20.67
2022-07-28T01:55:06.608Z,20.55
2022-07-28T01:57:35.333Z,20.53
2022-07-28T02:00:05.359Z,20.68
2022-07-28T02:02:33.867Z,20.54
2022-07-28T02:05:04.690Z,20.57
2022-07-28T02:07:33.867Z,20.49
2022-07-28T02:10:02.650Z,20.49
2022-07-28T02:12:31.392Z,20.47
2022-07-28T02:14:59.823Z,20.38
2022-07-28T02:17:32.582Z,20.33
2022-07-28T02:20:01.167Z,20.16
2022-07-28T02:22:28.477Z,20.23
2022-07-28T02:24:56.630Z,20.14
2022-07-28T02:27:35.523Z,20.00
2022-07-28T02:30:16.466Z,20.07
2022-07-28T02:33:15.253Z,20.02
2022-07-28T02:35:50.904Z,19.83
2022-07-28T02:38:26.323Z,19.93
2022-07-28T02:40:57.570Z,19.84
2022-07-28T02:43:45.842Z,19.75
2022-07-28T02:46:20.417Z,19.76
2022-07-28T02:48:54.093Z,19.72
2022-07-28T02:51:25.018Z,19.59
2022-07-28T02:53:53.124Z,19.65
2022-07-28T02:56:21.950Z,19.69
2022-07-28T02:58:51.576Z,19.69
2022-07-28T03:01:20.703Z,19.74
2022-07-28T03:03:48.997Z,19.77
2022-07-28T03:06:17.792Z,19.72
2022-07-28T03:08:44.810Z,19.75
2022-07-28T03:11:13.938Z,19.79
2022-07-28T03:13:40.906Z,19.76
2022-07-28T03:16:08.805Z,19.68
2022-07-28T03:18:35.683Z,19.59
2022-07-28T03:21:02.572Z,19.61
2022-07-28T03:23:42.561Z,19.63
2022-07-28T03:26:33.301Z,19.46
2022-07-28T03:29:01.210Z,19.58
2022-07-28T03:31:29.352Z,19.50
2022-07-28T03:33:57.112Z,19.60
2022-07-28T03:36:31.670Z,19.64
2022-07-28T03:39:03.685Z,19.59
2022-07-28T03:41:33.742Z,19.56
2022-07-28T03:44:02.611Z,19.54
2022-07-28T03:46:29.569Z,19.59
2022-07-28T03:48:56.516Z,19.69
2022-07-28T03:51:25.509Z,19.68
2022-07-28T03:53:52.413Z,19.63
2022-07-28T03:56:19.490Z,19.57
2022-07-28T03:58:46.306Z,19.55
2022-07-28T04:01:13.192Z,19.55
2022-07-28T04:03:43.988Z,19.53
2022-07-28T04:06:15.507Z,19.63
2022-07-28T04:08:44.570Z,19.56
2022-07-28T04:11:11.442Z,19.66
2022-07-28T04:13:38.497Z,19.69
2022-07-28T04:16:07.099Z,19.49
2022-07-28T04:18:34.375Z,19.54
2022-07-28T04:21:01.278Z,19.45
2022-07-28T04:23:28.289Z,19.49
2022-07-28T04:25:55.385Z,19.44
2022-07-28T04:28:22.400Z,19.37
2022-07-28T04:30:49.382Z,19.20
2022-07-28T04:33:18.514Z,19.34
2022-07-28T04:35:46.946Z,19.45
2022-07-28T04:38:14.923Z,19.45
2022-07-28T04:40:42.475Z,19.40
2022-07-28T04:43:10.281Z,19.32
2022-07-28T04:45:37.337Z,19.37
2022-07-28T04:48:04.890Z,19.40
2022-07-28T04:50:32.619Z,19.37
2022-07-28T04:52:59.907Z,19.39
2022-07-28T04:55:26.735Z,19.30
2022-07-28T04:57:53.560Z,19.40
2022-07-28T05:00:22.806Z,19.38
2022-07-28T05:02:51.283Z,19.34
2022-07-28T05:05:18.495Z,19.44
2022-07-28T05:07:45.359Z,19.49
2022-07-28T05:10:12.754Z,19.62
2022-07-28T05:12:39.735Z,19.61
2022-07-28T05:15:07.636Z,19.68
2022-07-28T05:17:35.143Z,19.72
2022-07-28T05:20:03.335Z,19.70
2022-07-28T05:22:42.582Z,19.77
2022-07-28T05:25:21.322Z,19.89
2022-07-28T05:27:49.094Z,19.86
2022-07-28T05:30:17.129Z,19.95
2022-07-28T05:32:49.127Z,19.94
2022-07-28T05:35:16.501Z,19.99
2022-07-28T05:37:44.431Z,19.97
2022-07-28T05:40:14.361Z,20.09
2022-07-28T05:42:43.059Z,20.14
2022-07-28T05:45:15.969Z,20.18
2022-07-28T05:47:49.234Z,20.18
2022-07-28T05:50:17.794Z,20.17
2022-07-28T05:52:45.932Z,20.27
2022-07-28T05:55:13.764Z,20.26
2022-07-28T05:57:41.218Z,20.28
2022-07-28T06:00:17.750Z,20.28
2022-07-28T06:02:47.152Z,20.29
2022-07-28T06:05:14.661Z,20.21
2022-07-28T06:07:43.745Z,20.35
2022-07-28T06:10:14.055Z,20.37
2022-07-28T06:12:48.160Z,20.39
2022-07-28T06:15:27.187Z,20.44
2022-07-28T06:17:57.604Z,20.43
2022-07-28T06:20:27.758Z,20.44
2022-07-28T06:22:55.803Z,20.47
2022-07-28T06:25:25.761Z,20.45
2022-07-28T06:27:56.191Z,20.56
2022-07-28T06:30:24.280Z,20.45
2022-07-28T06:32:51.129Z,20.61
2022-07-28T06:35:19.059Z,20.56
2022-07-28T06:37:47.563Z,20.71
2022-07-28T06:40:16.777Z,20.71
2022-07-28T06:42:44.715Z,20.70
2022-07-28T06:45:19.809Z,20.81
2022-07-28T06:47:52.674Z,20.78
2022-07-28T06:50:25.539Z,20.76
2022-07-28T06:52:56.373Z,20.83
2022-07-28T06:55:23.431Z,20.89
2022-07-28T06:57:50.296Z,20.93
2022-07-28T07:00:17.479Z,20.89
2022-07-28T07:02:44.366Z,21.03
2022-07-28T07:05:12.688Z,21.11
2022-07-28T07:07:42.965Z,21.18
2022-07-28T07:10:10.453Z,21.19
2022-07-28T07:12:37.842Z,21.19
2022-07-28T07:15:05.834Z,21.30
2022-07-28T07:17:32.850Z,21.23
2022-07-28T07:19:59.956Z,21.35
2022-07-28T07:22:26.875Z,21.42
2022-07-28T07:24:57.094Z,21.37
2022-07-28T07:27:24.787Z,21.48
2022-07-28T07:29:51.631Z,21.49
2022-07-28T07:32:18.448Z,21.57
2022-07-28T07:34:45.268Z,21.54
2022-07-28T07:37:14.562Z,21.62
2022-07-28T07:39:41.977Z,21.71
2022-07-28T07:42:09.455Z,21.73
2022-07-28T07:44:36.319Z,21.69
2022-07-28T07:47:03.869Z,21.76
2022-07-28T07:49:44.946Z,21.79
2022-07-28T07:52:13.457Z,22.07
2022-07-28T07:54:40.289Z,21.98
2022-07-28T07:57:07.116Z,22.04
2022-07-28T07:59:33.942Z,22.03
2022-07-28T08:02:01.249Z,22.02
2022-07-28T08:04:28.794Z,22.20
2022-07-28T08:06:56.263Z,22.15
2022-07-28T08:09:23.761Z,22.20
2022-07-28T08:11:50.662Z,22.27
2022-07-28T08:14:18.301Z,22.31
2022-07-28T08:16:45.474Z,22.31
2022-07-28T08:19:12.289Z,22.24
2022-07-28T08:21:39.624Z,22.38
2022-07-28T08:24:07.179Z,22.38
2022-07-28T08:26:34.057Z,22.55
2022-07-28T08:29:00.905Z,22.52
2022-07-28T08:31:27.772Z,22.57
2022-07-28T08:33:55.435Z,22.64
2022-07-28T08:36:22.724Z,22.73
2022-07-28T08:38:50.011Z,22.78
2022-07-28T08:41:36.912Z,22.67
2022-07-28T08:44:04.880Z,23.02
2022-07-28T08:46:38.221Z,23.09
2022-07-28T08:49:09.416Z,23.12
2022-07-28T08:51:38.429Z,23.18
2022-07-28T08:54:07.284Z,23.14
2022-07-28T08:56:41.341Z,23.18
2022-07-28T08:59:15.471Z,23.29
2022-07-28T09:01:43.351Z,23.40
2022-07-28T09:04:11.007Z,23.40
2022-07-28T09:06:42.824Z,23.52
2022-07-28T09:09:10.474Z,23.60
2022-07-28T09:11:38.285Z,23.50
2022-07-28T09:14:05.915Z,23.66
2022-07-28T09:16:33.292Z,23.75
2022-07-28T09:19:00.126Z,23.89
2022-07-28T09:21:27.479Z,23.87
2022-07-28T09:23:54.355Z,23.98
2022-07-28T09:26:21.326Z,24.08
2022-07-28T09:28:57.363Z,24.15
2022-07-28T09:31:27.416Z,24.21
2022-07-28T09:34:03.697Z,24.16
2022-07-28T09:36:41.389Z,24.22
2022-07-28T09:39:09.115Z,24.21
2022-07-28T09:41:57.734Z,24.31
2022-07-28T09:44:29.187Z,24.31
2022-07-28T09:46:57.135Z,24.36
2022-07-28T09:49:44.444Z,24.52
2022-07-28T09:52:11.672Z,24.58
2022-07-28T09:54:41.010Z,24.60
2022-07-28T09:57:11.640Z,24.75
2022-07-28T09:59:50.820Z,25.19
2022-07-28T10:02:28.139Z,25.48
2022-07-28T10:07:29.964Z,25.34
2022-07-28T10:10:08.956Z,25.38
2022-07-28T10:12:38.422Z,25.51
2022-07-28T10:15:46.832Z,25.65
2022-07-28T10:18:17.945Z,25.61
2022-07-28T10:20:45.116Z,25.77
2022-07-28T10:23:13.611Z,25.78
2022-07-28T10:25:41.240Z,25.87
2022-07-28T10:28:10.416Z,25.97
2022-07-28T10:30:41.260Z,26.03
2022-07-28T10:33:15.503Z,26.03
2022-07-28T10:35:46.833Z,26.07
2022-07-28T10:38:22.915Z,26.04
2022-07-28T10:40:50.730Z,26.14
2022-07-28T10:43:18.072Z,26.15
2022-07-28T10:46:05.166Z,26.18
2022-07-28T10:48:33.796Z,26.40
2022-07-28T10:51:01.752Z,26.49
2022-07-28T10:53:52.654Z,26.48
2022-07-28T10:56:51.864Z,26.72
2022-07-28T10:59:58.568Z,26.89
2022-07-28T11:03:00.671Z,26.92
2022-07-28T11:05:39.648Z,27.03
2022-07-28T11:08:29.562Z,27.13
2022-07-28T11:11:07.406Z,27.33
2022-07-28T11:13:37.147Z,27.46
2022-07-28T11:16:14.264Z,27.64
2022-07-28T11:19:40.545Z,27.84
2022-07-28T11:22:18.918Z,28.03
2022-07-28T11:24:58.183Z,28.23
2022-07-28T11:27:40.237Z,28.44
2022-07-28T11:30:08.746Z,28.82
2022-07-28T11:32:50.570Z,29.33
2022-07-28T11:35:24.854Z,30.72
2022-07-28T11:38:00.854Z,32.43
2022-07-28T11:40:44.980Z,33.80
2022-07-28T11:43:37.000Z,33.90
2022-07-28T11:46:05.254Z,35.51
2022-07-28T11:48:40.954Z,36.28
2022-07-28T11:51:10.169Z,37.59
2022-07-28T11:53:55.492Z,36.68
2022-07-28T11:56:36.056Z,36.15
2022-07-28T11:59:06.272Z,34.68
2022-07-28T12:01:38.454Z,33.93
2022-07-28T12:04:14.707Z,33.53
2022-07-28T12:06:43.022Z,33.02
2022-07-28T12:09:11.203Z,32.22
2022-07-28T12:11:42.281Z,31.93
2022-07-28T12:14:16.385Z,31.98
2022-07-28T12:16:46.345Z,31.77
2022-07-28T12:19:19.408Z,31.24
2022-07-28T12:21:55.725Z,30.81
2022-07-28T12:24:44.878Z,30.79
2022-07-28T12:27:15.124Z,30.41
2022-07-28T12:29:42.515Z,30.73
2022-07-28T12:32:09.986Z,30.87
2022-07-28T12:34:39.888Z,30.79
2022-07-28T12:37:12.167Z,30.80
2022-07-28T12:39:41.998Z,30.51
2022-07-28T12:42:13.294Z,30.33
2022-07-28T12:44:47.580Z,30.11
2022-07-28T12:47:24.599Z,30.21
2022-07-28T12:50:14.016Z,30.37
2022-07-28T12:52:43.465Z,30.53
2022-07-28T12:55:27.052Z,30.65
2022-07-28T12:57:54.188Z,31.10
2022-07-28T13:00:26.215Z,31.25
2022-07-28T13:02:57.133Z,31.21
2022-07-28T13:06:00.589Z,31.37
2022-07-28T13:08:29.451Z,31.44
2022-07-28T13:10:58.779Z,31.42
2022-07-28T13:13:26.742Z,31.18
2022-07-28T13:16:17.477Z,31.07
2022-07-28T13:18:53.513Z,31.09
2022-07-28T13:21:58.681Z,31.05
2022-07-28T13:24:29.870Z,30.76
2022-07-28T13:26:58.237Z,30.59
2022-07-28T13:29:25.801Z,30.53
2022-07-28T13:31:54.541Z,30.54
2022-07-28T13:34:21.901Z,30.63
2022-07-28T13:36:48.712Z,30.62
2022-07-28T13:39:15.546Z,30.38
2022-07-28T13:41:58.549Z,30.52
2022-07-28T13:44:30.444Z,30.48
2022-07-28T13:46:59.443Z,30.37
2022-07-28T13:49:34.233Z,30.30
2022-07-28T13:52:02.202Z,30.22
2022-07-28T13:54:29.225Z,30.27
2022-07-28T13:56:56.241Z,30.24
2022-07-28T13:59:24.052Z,30.25
2022-07-28T14:01:55.280Z,30.19
2022-07-28T14:04:22.621Z,30.14
2022-07-28T14:06:49.681Z,30.17
2022-07-28T14:09:18.051Z,30.24
2022-07-28T14:11:49.476Z,30.24
2022-07-28T14:14:20.156Z,30.34
2022-07-28T14:16:48.113Z,30.20
2022-07-28T14:19:16.587Z,30.24
2022-07-28T14:21:50.511Z,30.22
2022-07-28T14:24:17.843Z,30.24
2022-07-28T14:26:44.920Z,30.18
2022-07-28T14:29:11.932Z,30.19
2022-07-28T14:31:39.039Z,30.16
2022-07-28T14:34:05.891Z,30.02
2022-07-28T14:36:32.723Z,30.15
2022-07-28T14:38:59.560Z,30.19
2022-07-28T14:41:26.432Z,30.16
2022-07-28T14:43:56.290Z,30.12
2022-07-28T14:46:29.786Z,30.08
2022-07-28T14:48:57.102Z,30.17
2022-07-28T14:51:24.032Z,30.09
2022-07-28T14:53:52.146Z,30.07
2022-07-28T14:56:19.188Z,30.02
2022-07-28T14:58:45.997Z,30.11
2022-07-28T15:01:12.825Z,29.90
2022-07-28T15:03:43.064Z,29.99
2022-07-28T15:06:10.772Z,29.98
2022-07-28T15:08:37.638Z,29.94
2022-07-28T15:11:04.487Z,29.91
2022-07-28T15:13:31.299Z,29.99
2022-07-28T15:16:00.047Z,29.93
2022-07-28T15:18:27.145Z,29.91
2022-07-28T15:20:56.141Z,29.95
2022-07-28T15:23:24.271Z,29.92
2022-07-28T15:25:52.983Z,29.92
2022-07-28T15:28:19.935Z,29.98
2022-07-28T15:30:51.873Z,29.88
2022-07-28T15:33:20.478Z,29.88
2022-07-28T15:35:57.908Z,29.79
2022-07-28T15:38:27.747Z,29.76
2022-07-28T15:40:55.337Z,29.78
2022-07-28T15:43:23.736Z,29.92
2022-07-28T15:45:51.294Z,29.88
2022-07-28T15:48:18.127Z,29.87
2022-07-28T15:50:48.379Z,29.85
2022-07-28T15:53:18.228Z,29.82
2022-07-28T15:55:50.543Z,29.78
2022-07-28T15:58:17.984Z,29.89
2022-07-28T16:00:45.895Z,29.87
2022-07-28T16:03:13.439Z,29.84
2022-07-28T16:05:40.630Z,29.79
2022-07-28T16:08:07.727Z,29.83
2022-07-28T16:10:34.601Z,29.84
2022-07-28T16:13:01.641Z,29.78
2022-07-28T16:15:28.511Z,29.77
2022-07-28T16:17:55.763Z,29.72
2022-07-28T16:20:24.309Z,29.73
2022-07-28T16:22:51.445Z,29.72
2022-07-28T16:25:20.333Z,29.70
2022-07-28T16:27:48.904Z,29.74
2022-07-28T16:30:18.568Z,29.70
2022-07-28T16:32:46.411Z,29.48
2022-07-28T16:35:14.194Z,29.62
2022-07-28T16:37:41.169Z,29.61
2022-07-28T16:40:10.881Z,29.56
2022-07-28T16:42:37.750Z,29.56
2022-07-28T16:45:05.251Z,29.53
2022-07-28T16:47:32.128Z,29.58
2022-07-28T16:49:59.247Z,29.55
2022-07-28T16:52:27.413Z,29.62
2022-07-28T16:54:54.316Z,29.54
2022-07-28T16:57:21.165Z,29.60
2022-07-28T16:59:49.051Z,29.54
2022-07-28T17:02:17.326Z,29.50
2022-07-28T17:04:44.422Z,29.37
2022-07-28T17:07:11.367Z,29.56
2022-07-28T17:09:39.137Z,29.47
2022-07-28T17:12:07.317Z,29.39
2022-07-28T17:14:34.157Z,29.41
2022-07-28T17:17:00.983Z,29.37
2022-07-28T17:19:27.829Z,29.33
2022-07-28T17:22:01.105Z,29.31
2022-07-28T17:24:28.119Z,29.31
2022-07-28T17:29:42.580Z,29.14
2022-07-28T17:32:10.176Z,29.26
2022-07-28T17:34:37.775Z,29.19
2022-07-28T17:37:05.266Z,29.18
2022-07-28T17:39:32.370Z,29.13
2022-07-28T17:41:59.244Z,28.95
2022-07-28T17:44:26.079Z,28.99
2022-07-28T17:46:53.053Z,28.98
2022-07-28T17:49:20.109Z,28.90
2022-07-28T17:51:47.557Z,28.90
2022-07-28T17:54:15.751Z,28.79
2022-07-28T17:56:42.850Z,28.82
2022-07-28T17:59:10.405Z,28.72
2022-07-28T18:01:38.964Z,28.73
2022-07-28T18:04:09.125Z,28.71
2022-07-28T18:06:38.321Z,28.67
2022-07-28T18:09:08.585Z,28.50
2022-07-28T18:11:55.927Z,28.58
2022-07-28T18:14:30.214Z,28.51
2022-07-28T18:16:58.382Z,28.48
2022-07-28T18:19:27.071Z,28.45
2022-07-28T18:21:54.300Z,28.38
2022-07-28T18:24:22.405Z,28.36
2022-07-28T18:26:51.338Z,28.35
2022-07-28T18:29:20.175Z,28.31
2022-07-28T18:31:48.364Z,28.30
2022-07-28T18:34:15.718Z,28.22
2022-07-28T18:36:43.219Z,28.24
2022-07-28T18:39:10.524Z,28.09
2022-07-28T18:41:46.347Z,28.19
2022-07-28T18:44:18.364Z,28.08
2022-07-28T18:46:46.071Z,28.07
2022-07-28T18:49:13.407Z,28.03
2022-07-28T18:51:44.900Z,28.05
2022-07-28T18:54:21.503Z,27.98
2022-07-28T18:56:54.111Z,27.96
2022-07-28T18:59:21.844Z,27.87
2022-07-28T19:01:48.764Z,27.89
2022-07-28T19:04:16.075Z,27.82
2022-07-28T19:06:43.246Z,27.80
2022-07-28T19:09:10.138Z,27.77
2022-07-28T19:11:38.405Z,27.63
2022-07-28T19:14:07.046Z,27.67
2022-07-28T19:16:33.954Z,27.69
2022-07-28T19:19:00.762Z,27.65
2022-07-28T19:21:28.036Z,27.62
2022-07-28T19:23:54.865Z,27.61
2022-07-28T19:26:21.885Z,27.53
2022-07-28T19:28:48.761Z,27.55
2022-07-28T19:31:15.700Z,27.47
2022-07-28T19:33:43.923Z,27.44
2022-07-28T19:36:13.665Z,27.48
2022-07-28T19:38:41.250Z,27.46
2022-07-28T19:41:09.207Z,27.42
2022-07-28T19:43:36.363Z,27.34
2022-07-28T19:46:03.490Z,27.39
2022-07-28T19:48:30.517Z,27.34
2022-07-28T19:50:57.563Z,27.35
2022-07-28T19:53:25.329Z,27.23
2022-07-28T19:55:59.282Z,27.31
2022-07-28T19:58:26.211Z,27.43
2022-07-28T20:00:53.680Z,27.47
2022-07-28T20:04:02.613Z,26.96
2022-07-28T20:06:10.850Z,26.58
2022-07-28T20:08:38.105Z,26.44
2022-07-28T20:11:05.217Z,25.37
2022-07-28T20:13:32.040Z,25.25
2022-07-28T20:15:58.935Z,24.89
2022-07-28T20:18:25.847Z,24.80
2022-07-28T20:20:52.674Z,24.55
2022-07-28T20:23:19.572Z,24.27
2022-07-28T20:25:46.741Z,24.24
2022-07-28T20:28:13.582Z,24.22
2022-07-28T20:30:40.661Z,24.25
2022-07-28T20:33:08.185Z,23.96
2022-07-28T20:35:35.203Z,23.96
2022-07-28T20:38:03.035Z,23.90
2022-07-28T20:40:29.891Z,23.94
2022-07-28T20:42:56.720Z,23.87
2022-07-28T20:45:23.780Z,23.77
2022-07-28T20:47:50.678Z,23.78
2022-07-28T20:50:17.716Z,23.79
2022-07-28T20:52:44.626Z,23.80
2022-07-28T20:55:12.309Z,23.70
2022-07-28T20:57:39.175Z,23.68
2022-07-28T21:00:07.739Z,23.59
2022-07-28T21:30:28.100Z,22.16
2022-07-28T21:33:38.297Z,22.49
2022-07-28T21:36:51.857Z,22.13
2022-07-28T21:54:47.971Z,22.32
2022-07-28T21:57:20.949Z,22.05
2022-07-28T21:59:53.728Z,21.76
2022-07-28T22:02:20.669Z,21.83
2022-07-28T22:04:51.399Z,21.91
2022-07-28T22:07:18.302Z,21.91
2022-07-28T22:09:45.286Z,22.07
2022-07-28T22:12:12.266Z,22.04
2022-07-28T22:14:39.128Z,22.05
2022-07-28T22:17:06.009Z,22.12
2022-07-28T22:19:32.831Z,22.15
2022-07-28T22:21:59.931Z,22.12
2022-07-28T22:24:26.847Z,22.09
2022-07-28T22:26:53.953Z,22.12
2022-07-28T22:29:20.876Z,22.04
2022-07-28T22:31:47.854Z,22.13
2022-07-28T22:34:15.082Z,22.22
2022-07-28T22:36:42.097Z,22.12
2022-07-28T22:39:09.975Z,22.15
2022-07-28T22:41:36.822Z,22.15
2022-07-28T22:44:04.135Z,22.15
2022-07-28T22:46:34.144Z,22.00
2022-07-28T22:49:01.099Z,22.02
2022-07-28T22:51:28.064Z,22.13
2022-07-28T22:53:55.210Z,22.00
2022-07-28T22:56:22.064Z,22.14
2022-07-28T22:58:48.891Z,22.19
2022-07-28T23:01:15.812Z,22.08
2022-07-28T23:03:43.036Z,22.12
2022-07-28T23:06:11.868Z,22.03
2022-07-28T23:08:38.761Z,21.97
2022-07-28T23:11:05.888Z,22.08
2022-07-28T23:13:32.771Z,22.12
2022-07-28T23:15:59.641Z,22.02
2022-07-28T23:18:26.494Z,22.09
2022-07-28T23:20:53.330Z,22.12
2022-07-28T23:23:21.229Z,22.10
2022-07-28T23:25:55.222Z,22.07
2022-07-28T23:38:29.444Z,20.99
2022-07-28T23:41:03.923Z,21.01
2022-07-28T23:44:13.134Z,21.17
2022-07-28T23:46:52.843Z,21.74
